Time;durP1;ratioP1;P1;durP2;ratioP2;P2;SDS_P1;SDS_P2;PMS_P1;PMS_P2;Temp;Humidity;BMP_temperature;BMP_pressure;BME280_temperature;BME280_humidity;BME280_pressure;Samples;Min_cycle;Max_cycle;Signal;HPM_P1;HPM_P2
2023/10/16 00:00:29;;;;;;;8.93;5.30;;;;;;;6.07;100.00;102384.03;5031310;28;20039;-65
2023/10/16 00:02:59;;;;;;;11.33;5.00;;;;;;;6.06;100.00;102380.56;5015737;28;20045;-65
2023/10/16 00:05:32;;;;;;;7.47;4.60;;;;;;;6.06;100.00;102374.44;5029045;28;20037;-65
2023/10/16 00:08:07;;;;;;;9.13;5.43;;;;;;;6.03;100.00;102370.22;5028169;28;20059;-65
2023/10/16 00:10:35;;;;;;;13.33;5.10;;;;;;;6.07;100.00;102381.41;5016937;28;20026;-65
2023/10/16 00:13:04;;;;;;;11.23;5.43;;;;;;;6.07;100.00;102370.84;5013459;28;20403;-66
2023/10/16 00:15:40;;;;;;;13.80;5.22;;;;;;;6.05;100.00;102370.97;5029719;28;20033;-65
2023/10/16 00:18:13;;;;;;;8.93;5.07;;;;;;;6.05;100.00;102365.69;5015296;28;20403;-65
2023/10/16 00:20:41;;;;;;;8.67;4.50;;;;;;;6.08;100.00;102372.56;5028262;28;20411;-65
2023/10/16 00:23:11;;;;;;;9.90;4.63;;;;;;;6.12;100.00;102374.06;5017572;28;20097;-65
2023/10/16 00:25:38;;;;;;;8.17;4.90;;;;;;;6.13;100.00;102371.31;5013480;28;20505;-65
2023/10/16 00:28:05;;;;;;;11.67;5.00;;;;;;;6.15;100.00;102371.19;5021586;28;20025;-65
2023/10/16 00:30:31;;;;;;;11.77;5.07;;;;;;;6.11;100.00;102378.47;5018117;28;20490;-65
2023/10/16 00:32:58;;;;;;;8.93;4.80;;;;;;;6.09;100.00;102379.53;5012724;28;20037;-65
2023/10/16 00:35:23;;;;;;;9.43;4.73;;;;;;;6.08;100.00;102378.69;5031257;28;20390;-65
2023/10/16 00:37:50;;;;;;;9.93;5.40;;;;;;;6.09;100.00;102382.19;5027942;28;20032;-65
2023/10/16 00:40:29;;;;;;;9.70;5.10;;;;;;;6.11;100.00;102377.63;5012412;28;20376;-65
2023/10/16 00:42:54;;;;;;;13.80;5.50;;;;;;;6.11;100.00;102375.00;5011877;28;20041;-65
2023/10/16 00:45:20;;;;;;;14.50;5.30;;;;;;;6.13;100.00;102373.94;5021414;28;20024;-65
2023/10/16 00:47:45;;;;;;;9.47;5.67;;;;;;;6.16;100.00;102376.38;5030841;28;20395;-65
2023/10/16 00:50:14;;;;;;;9.37;5.20;;;;;;;6.15;100.00;102381.75;5014544;28;20033;-65
2023/10/16 00:52:42;;;;;;;10.73;5.10;;;;;;;6.15;100.00;102381.75;5016948;28;20029;-65
2023/10/16 00:55:11;;;;;;;8.40;4.83;;;;;;;6.15;100.00;102377.31;5012140;28;20022;-65
2023/10/16 00:57:42;;;;;;;10.60;5.00;;;;;;;6.13;100.00;102373.09;5027552;28;20032;-65
2023/10/16 01:00:12;;;;;;;11.00;5.70;;;;;;;6.11;100.00;102364.44;5029937;28;20550;-65
2023/10/16 01:02:40;;;;;;;10.67;5.17;;;;;;;6.13;100.00;102370.47;5025145;28;20025;-65
2023/10/16 01:05:07;;;;;;;12.07;5.67;;;;;;;6.14;100.00;102364.25;5024076;28;20036;-65
2023/10/16 01:07:33;;;;;;;10.13;5.47;;;;;;;6.15;100.00;102368.56;5032389;28;20108;-65
2023/10/16 01:09:59;;;;;;;10.53;5.30;;;;;;;6.13;100.00;102360.75;5030177;28;20105;-65
2023/10/16 01:12:25;;;;;;;13.00;5.50;;;;;;;6.12;100.00;102360.88;5025480;28;20040;-65
2023/10/16 01:14:50;;;;;;;9.73;5.40;;;;;;;6.10;100.00;102360.13;5031841;28;20092;-65
2023/10/16 01:17:17;;;;;;;8.73;5.27;;;;;;;6.07;100.00;102361.19;5023860;28;20026;-65
2023/10/16 01:19:46;;;;;;;13.03;5.77;;;;;;;6.07;100.00;102362.94;5019239;28;20080;-65
2023/10/16 01:22:13;;;;;;;10.70;5.37;;;;;;;6.05;100.00;102356.94;5023973;28;20455;-65
2023/10/16 01:24:43;;;;;;;10.67;5.90;;;;;;;6.02;100.00;102357.97;5027602;28;20036;-65
2023/10/16 01:27:26;;;;;;;10.17;5.10;;;;;;;5.95;100.00;102350.59;5020771;28;20229;-65
2023/10/16 01:29:52;;;;;;;10.10;5.33;;;;;;;5.93;100.00;102344.59;5017118;28;20139;-65
2023/10/16 01:32:18;;;;;;;12.10;5.97;;;;;;;5.91;100.00;102342.06;5022614;28;20021;-65
2023/10/16 01:34:46;;;;;;;10.63;6.03;;;;;;;5.84;100.00;102331.06;5024305;28;20080;-65
2023/10/16 01:37:17;;;;;;;10.20;5.90;;;;;;;5.87;100.00;102338.75;5016156;28;20060;-65
2023/10/16 01:39:48;;;;;;;14.63;5.90;;;;;;;5.90;100.00;102340.38;5021234;28;20026;-65
2023/10/16 01:42:15;;;;;;;12.97;5.80;;;;;;;5.89;100.00;102344.78;5013564;28;20029;-65
2023/10/16 01:44:44;;;;;;;13.77;5.63;;;;;;;5.88;100.00;102331.69;5028147;28;20033;-65
2023/10/16 01:47:13;;;;;;;15.63;6.47;;;;;;;5.90;100.00;102338.56;5035619;28;20757;-65
2023/10/16 01:49:38;;;;;;;;;;;;;;;5.96;100.00;102339.94;5011108;28;20228;-65
2023/10/16 01:52:05;;;;;;;13.47;6.63;;;;;;;5.95;100.00;102337.41;5014189;28;20406;-65
2023/10/16 01:54:30;;;;;;;10.30;5.93;;;;;;;5.96;100.00;102349.66;5015764;28;20463;-65
2023/10/16 01:56:56;;;;;;;12.10;6.30;;;;;;;5.96;100.00;102347.00;5023217;28;20029;-65
2023/10/16 01:59:21;;;;;;;12.10;7.30;;;;;;;5.94;100.00;102343.63;5015990;28;20026;-65
2023/10/16 02:01:47;;;;;;;11.80;6.37;;;;;;;5.92;100.00;102329.72;5024813;28;20018;-65
2023/10/16 02:04:12;;;;;;;9.67;6.67;;;;;;;5.89;100.00;102330.75;5016958;28;20084;-65
2023/10/16 02:06:39;;;;;;;10.47;6.63;;;;;;;5.87;100.00;102322.94;5028523;28;20030;-65
2023/10/16 02:09:12;;;;;;;10.87;6.80;;;;;;;5.89;100.00;102328.97;5013278;28;20039;-65
2023/10/16 02:11:38;;;;;;;11.00;6.53;;;;;;;5.88;100.00;102332.53;5009303;28;20029;-65
2023/10/16 02:14:04;;;;;;;14.00;6.40;;;;;;;5.87;100.00;102324.72;5017456;28;20018;-65
2023/10/16 02:16:31;;;;;;;16.70;6.80;;;;;;;5.86;100.00;102323.88;5025670;28;20086;-65
2023/10/16 02:18:56;;;;;;;12.03;7.33;;;;;;;5.87;100.00;102315.03;5014249;28;20028;-65
2023/10/16 02:21:23;;;;;;;15.13;7.30;;;;;;;5.87;100.00;102325.56;5018256;28;20060;-65
2023/10/16 02:23:48;;;;;;;13.83;7.53;;;;;;;5.88;100.00;102315.88;5016900;28;20061;-65
2023/10/16 02:26:21;;;;;;;17.10;7.40;;;;;;;5.89;100.00;102318.44;5017783;28;20041;-66
2023/10/16 02:28:47;;;;;;;13.03;7.30;;;;;;;5.92;100.00;102321.81;5020105;28;20105;-65
2023/10/16 02:31:14;;;;;;;15.77;7.30;;;;;;;5.93;100.00;102320.84;5021036;28;20108;-66
2023/10/16 02:33:44;;;;;;;11.37;6.77;;;;;;;5.95;100.00;102318.97;5022000;28;20018;-65
2023/10/16 02:36:09;;;;;;;17.17;7.37;;;;;;;5.94;100.00;102318.13;5028322;28;20025;-65
2023/10/16 02:38:35;;;;;;;13.67;7.37;;;;;;;5.93;100.00;102313.78;5014148;28;20096;-65
2023/10/16 02:41:01;;;;;;;14.77;7.47;;;;;;;5.91;100.00;102310.41;5016061;28;20392;-65
2023/10/16 02:43:27;;;;;;;12.47;7.40;;;;;;;5.88;100.00;102314.06;5009695;28;20028;-65
2023/10/16 02:45:53;;;;;;;11.27;7.20;;;;;;;5.87;100.00;102314.19;5031767;28;20051;-65
2023/10/16 02:48:19;;;;;;;12.13;7.40;;;;;;;5.86;100.00;102313.34;5022036;28;20049;-65
2023/10/16 02:50:49;;;;;;;12.83;7.30;;;;;;;5.85;100.00;102316.09;5019561;28;20025;-65
2023/10/16 02:53:16;;;;;;;10.17;7.23;;;;;;;5.86;100.00;102313.34;5028199;28;20022;-65
2023/10/16 02:55:44;;;;;;;16.43;7.23;;;;;;;5.85;100.00;102314.28;5021547;28;20022;-65
2023/10/16 02:58:11;;;;;;;12.73;7.60;;;;;;;5.83;100.00;102305.66;5011864;28;20025;-65
2023/10/16 03:00:38;;;;;;;12.30;7.40;;;;;;;5.82;100.00;102319.78;5021318;28;20022;-65
2023/10/16 03:03:07;;;;;;;14.40;7.57;;;;;;;5.79;100.00;102311.22;5020313;28;20406;-65
2023/10/16 03:05:32;;;;;;;13.30;7.40;;;;;;;5.77;100.00;102313.94;5016949;28;20030;-65
2023/10/16 03:07:58;;;;;;;14.53;7.37;;;;;;;5.78;100.00;102312.16;5021945;28;20653;-65
2023/10/16 03:10:24;;;;;;;15.83;7.33;;;;;;;5.75;100.00;102310.56;5011831;28;20021;-65
2023/10/16 03:12:49;;;;;;;10.23;7.47;;;;;;;5.76;100.00;102314.88;5021524;28;20067;-65
2023/10/16 03:15:29;;;;;;;15.30;7.67;;;;;;;5.75;100.00;102315.00;5035938;28;20041;-65
2023/10/16 03:17:55;;;;;;;17.40;7.80;;;;;;;5.78;100.00;102315.66;5015418;28;20405;-65
2023/10/16 03:20:23;;;;;;;13.93;7.50;;;;;;;5.81;100.00;102314.59;5022044;28;20071;-65
2023/10/16 03:22:53;;;;;;;12.53;7.67;;;;;;;5.81;100.00;102315.44;5017184;28;20112;-65
2023/10/16 03:25:31;;;;;;;10.97;7.20;;;;;;;5.82;100.00;102316.28;5027368;28;20088;-65
2023/10/16 03:27:56;;;;;;;10.43;7.40;;;;;;;5.79;100.00;102309.44;5018799;28;20052;-65
2023/10/16 03:30:27;;;;;;;11.80;7.43;;;;;;;5.72;100.00;102302.88;5021655;28;20099;-65
2023/10/16 03:32:53;;;;;;;12.97;7.77;;;;;;;5.74;100.00;102308.88;5014202;28;20094;-65
2023/10/16 03:35:21;;;;;;;11.90;6.97;;;;;;;5.70;100.00;102306.56;5020698;28;20021;-65
2023/10/16 03:37:49;;;;;;;12.60;7.70;;;;;;;5.72;100.00;102305.50;5022607;28;20681;-65
2023/10/16 03:40:14;;;;;;;13.67;8.17;;;;;;;5.74;100.00;102308.03;5014594;28;20031;-65
2023/10/16 03:42:40;;;;;;;11.03;7.47;;;;;;;5.71;100.00;102300.34;5028034;28;20029;-65
2023/10/16 03:45:06;;;;;;;15.43;7.90;;;;;;;5.72;100.00;102305.50;5013450;28;20397;-65
2023/10/16 03:47:33;;;;;;;13.07;7.97;;;;;;;5.75;100.00;102297.38;5022762;28;20700;-65
2023/10/16 03:49:58;;;;;;;11.27;7.87;;;;;;;5.76;100.00;102303.50;5018485;28;20118;-65
2023/10/16 03:52:26;;;;;;;11.60;7.83;;;;;;;5.77;100.00;102303.41;5017397;28;20425;-65
2023/10/16 03:54:53;;;;;;;15.97;7.23;;;;;;;5.73;100.00;102301.06;5017769;28;20051;-65
2023/10/16 03:57:20;;;;;;;19.03;7.33;;;;;;;5.74;100.00;102305.41;5027436;28;20032;-65
2023/10/16 03:59:47;;;;;;;14.47;7.47;;;;;;;5.75;100.00;102304.44;5026419;28;20024;-66
2023/10/16 04:02:19;;;;;;;11.97;8.07;;;;;;;5.73;100.00;102299.28;5018811;28;20017;-65
2023/10/16 04:04:45;;;;;;;11.13;7.13;;;;;;;5.77;100.00;102295.50;5016024;28;20056;-65
2023/10/16 04:07:13;;;;;;;15.67;8.20;;;;;;;5.77;100.00;102292.84;5031534;28;20490;-65
2023/10/16 04:09:48;;;;;;;11.82;7.03;;;;;;;5.78;100.00;102299.84;5019927;28;20028;-65
2023/10/16 04:12:17;;;;;;;14.17;7.70;;;;;;;5.80;100.00;102300.59;5026232;28;20360;-65
2023/10/16 04:14:50;;;;;;;12.25;7.65;;;;;;;5.83;100.00;102296.88;5021946;28;20049;-65
2023/10/16 04:17:15;;;;;;;13.10;8.27;;;;;;;5.86;100.00;102294.88;5027357;28;20026;-65
2023/10/16 04:19:53;;;;;;;11.13;8.13;;;;;;;5.90;100.00;102288.47;5016085;28;20482;-65
2023/10/16 04:22:25;;;;;;;11.67;8.40;;;;;;;5.91;100.00;102294.59;5014952;28;20052;-65
2023/10/16 04:24:54;;;;;;;11.67;7.67;;;;;;;5.91;100.00;102286.69;5035429;28;20482;-65
2023/10/16 04:32:55;;;;;;;11.90;8.50;;;;;;;5.86;100.00;102292.25;5020705;28;20108;-65
2023/10/16 04:35:29;;;;;;;11.67;8.43;;;;;;;5.88;100.00;102279.81;5022646;28;20109;-65
2023/10/16 04:37:55;;;;;;;14.60;8.80;;;;;;;5.86;100.00;102278.22;5014673;28;20068;-65
2023/10/16 04:42:02;;;;;;;16.50;8.83;;;;;;;5.85;100.00;102282.66;5021033;28;20025;-65
2023/10/16 04:44:22;;;;;;;13.90;9.17;;;;;;;5.81;100.00;102269.78;5019657;28;20046;-65
2023/10/16 04:46:16;;;;;;;13.77;8.70;;;;;;;5.82;100.00;102274.97;5024233;28;20107;-65
2023/10/16 04:48:54;;;;;;;14.50;9.00;;;;;;;5.79;100.00;102264.63;5014613;28;20597;-65
2023/10/16 04:51:22;;;;;;;13.80;9.27;;;;;;;5.82;100.00;102269.69;5021232;28;20033;-65
2023/10/16 04:53:58;;;;;;;14.10;9.35;;;;;;;5.85;100.00;102261.56;5020076;28;20038;-65
2023/10/16 04:56:57;;;;;;;11.87;8.40;;;;;;;5.84;100.00;102262.50;5018351;28;20026;-65
2023/10/16 05:02:29;;;;;;;15.83;9.80;;;;;;;5.83;100.00;102266.09;5019339;28;20064;-65
2023/10/16 05:07:45;;;;;;;14.70;9.40;;;;;;;5.82;100.00;102255.66;5015638;28;20545;-65
2023/10/16 05:10:12;;;;;;;11.47;9.57;;;;;;;5.82;100.00;102261.78;5017277;28;20033;-66
2023/10/16 05:15:41;;;;;;;16.40;10.00;;;;;;;5.79;100.00;102263.78;5025875;28;20037;-65
2023/10/16 05:18:12;;;;;;;13.30;9.83;;;;;;;5.80;100.00;102261.03;5011072;28;20029;-65
2023/10/16 05:21:16;;;;;;;13.73;9.47;;;;;;;5.79;100.00;102264.63;5014771;28;20502;-65
2023/10/16 06:15:37;;;;;;;15.27;9.20;;;;;;;5.65;100.00;102258.59;5029538;28;20040;-65
2023/10/16 06:18:06;;;;;;;14.30;9.00;;;;;;;5.68;100.00;102255.75;5013444;28;20465;-66
2023/10/16 06:20:31;;;;;;;13.82;9.65;;;;;;;5.71;100.00;102255.53;5017250;28;20033;-65
2023/10/16 06:22:58;;;;;;;19.70;10.10;;;;;;;5.74;100.00;102257.94;5017341;28;20060;-66
2023/10/16 06:25:28;;;;;;;15.50;11.07;;;;;;;5.77;100.00;102260.38;5022120;28;20021;-65
2023/10/16 06:27:55;;;;;;;15.27;8.83;;;;;;;5.77;100.00;102258.59;5021164;28;20025;-65
2023/10/16 06:30:22;;;;;;;13.80;9.40;;;;;;;5.86;100.00;102268.53;5015396;28;20506;-65
2023/10/16 06:32:49;;;;;;;15.90;9.43;;;;;;;5.89;100.00;102270.97;5015981;28;20032;-65
2023/10/16 06:35:16;;;;;;;12.60;9.23;;;;;;;5.89;100.00;102265.69;5022877;28;20638;-66
2023/10/16 06:37:51;;;;;;;14.50;9.47;;;;;;;5.96;100.00;102266.13;5019673;28;20025;-65
2023/10/16 06:40:17;;;;;;;15.50;8.77;;;;;;;5.98;100.00;102269.50;5022818;28;20013;-66
2023/10/16 06:42:45;;;;;;;13.87;8.87;;;;;;;5.98;100.00;102269.50;5008788;28;20050;-65
2023/10/16 06:45:19;;;;;;;13.73;9.10;;;;;;;6.00;100.00;102264.94;5014410;28;20485;-65
2023/10/16 06:47:49;;;;;;;13.10;9.27;;;;;;;6.06;100.00;102266.31;5010329;28;20073;-65
2023/10/16 06:52:51;;;;;;;13.60;9.90;;;;;;;6.13;100.00;102270.25;5025590;28;20033;-65
2023/10/16 06:55:17;;;;;;;14.63;9.03;;;;;;;6.14;100.00;102264.00;5029022;28;20017;-65
2023/10/16 06:57:43;;;;;;;15.67;9.60;;;;;;;6.21;100.00;102271.38;5015228;28;20051;-65
2023/10/16 07:00:22;;;;;;;13.27;9.20;;;;;;;6.21;100.00;102267.91;5015036;28;20037;-65
2023/10/16 07:02:47;;;;;;;16.03;9.53;;;;;;;6.21;100.00;102273.19;5011465;28;20028;-65
2023/10/16 07:05:14;;;;;;;15.50;9.20;;;;;;;6.21;100.00;102266.09;5016621;28;20017;-66
2023/10/16 07:07:39;;;;;;;17.70;8.83;;;;;;;6.21;100.00;102266.09;5010582;28;20629;-65
2023/10/16 07:10:13;;;;;;;14.33;9.57;;;;;;;6.23;100.00;102268.63;5012016;28;20092;-65
2023/10/16 07:12:56;;;;;;;16.73;9.33;;;;;;;6.25;100.00;102269.38;5027227;28;20029;-66
2023/10/16 07:15:24;;;;;;;12.53;9.20;;;;;;;6.25;100.00;102266.72;5032280;28;20105;-65
2023/10/16 07:17:50;;;;;;;15.23;9.67;;;;;;;6.29;100.00;102270.00;5013848;28;20022;-65
2023/10/16 07:20:24;;;;;;;14.20;9.20;;;;;;;6.26;100.00;102267.56;5016462;28;20395;-65
2023/10/16 07:22:49;;;;;;;19.10;9.67;;;;;;;6.25;100.00;102273.81;5010546;28;20053;-65
2023/10/16 07:25:23;;;;;;;16.23;9.60;;;;;;;6.25;100.00;102271.16;5028888;28;20060;-65
2023/10/16 07:27:49;;;;;;;15.87;9.73;;;;;;;6.24;100.00;102275.59;5018913;28;20056;-65
2023/10/16 07:30:24;;;;;;;15.37;9.07;;;;;;;6.22;100.00;102272.22;5018104;28;20045;-65
2023/10/16 07:32:49;;;;;;;16.60;9.80;;;;;;;6.18;100.00;102270.75;5019226;28;20513;-65
2023/10/16 07:35:18;;;;;;;15.03;9.87;;;;;;;6.17;100.00;102274.34;5024946;28;20017;-65
2023/10/16 07:37:53;;;;;;;16.50;10.00;;;;;;;6.16;100.00;102277.94;5030288;28;20422;-65
2023/10/16 07:40:20;;;;;;;16.00;10.23;;;;;;;6.17;100.00;102271.72;5023963;28;20037;-65
2023/10/16 07:42:48;;;;;;;15.47;10.33;;;;;;;6.20;100.00;102279.41;5022314;28;20119;-65
2023/10/16 07:45:14;;;;;;;13.17;9.87;;;;;;;6.24;100.00;102267.69;5026307;28;20041;-65
2023/10/16 07:47:39;;;;;;;17.27;10.30;;;;;;;6.31;100.00;102271.56;5011642;28;20471;-65
2023/10/16 07:50:07;;;;;;;16.57;10.60;;;;;;;6.39;100.00;102271.91;5016575;28;20025;-65
2023/10/16 07:52:33;;;;;;;18.53;10.13;;;;;;;6.44;100.00;102261.00;5025605;28;20061;-65
2023/10/16 07:54:59;;;;;;;17.57;10.90;;;;;;;6.52;100.00;102269.22;5021554;28;20052;-65
2023/10/16 07:57:24;;;;;;;16.87;10.77;;;;;;;6.58;100.00;102262.66;5033313;28;20017;-66
2023/10/16 07:59:54;;;;;;;18.38;10.38;;;;;;;6.62;100.00;102254.41;5026927;28;20520;-66
2023/10/16 08:02:20;;;;;;;17.73;10.53;;;;;;;6.70;100.00;102267.06;5027233;28;20095;-65
2023/10/16 08:04:51;;;;;;;14.83;9.87;;;;;;;6.73;100.00;102264.22;5013218;28;20112;-65
2023/10/16 08:07:18;;;;;;;14.33;10.10;;;;;;;6.78;100.00;102268.19;5025272;28;20053;-65
2023/10/16 08:12:18;;;;;;;13.03;10.07;;;;;;;6.98;100.00;102263.28;5032415;28;20033;-65
2023/10/16 08:14:45;;;;;;;16.07;10.00;;;;;;;7.08;100.00;102270.41;5016975;28;20022;-65
2023/10/16 08:17:23;;;;;;;17.33;9.70;;;;;;;7.11;100.00;102272.81;5012375;28;20620;-65
2023/10/16 08:19:49;;;;;;;16.07;10.03;;;;;;;7.23;100.00;102271.09;5017964;28;20017;-66
2023/10/16 08:22:15;;;;;;;14.93;9.85;;;;;;;7.33;100.00;102276.53;5022991;28;20484;-65
2023/10/16 08:24:57;;;;;;;12.52;9.80;;;;;;;7.41;100.00;102272.34;5026404;28;20530;-65
2023/10/16 08:30:17;;;;;;;15.07;9.13;;;;;;;7.59;100.00;102269.28;5021044;28;20037;-65
2023/10/16 08:32:53;;;;;;;13.48;9.20;;;;;;;7.67;100.00;102272.19;5016547;28;20057;-65
2023/10/16 08:35:19;;;;;;;16.08;9.73;;;;;;;7.76;100.00;102272.31;5018741;28;20017;-65
2023/10/16 08:37:55;;;;;;;13.55;8.68;;;;;;;7.85;100.00;102267.31;5012916;28;20026;-65
2023/10/16 08:40:23;;;;;;;16.52;9.65;;;;;;;7.91;100.00;102274.75;5024426;28;20018;-66
2023/10/16 08:43:01;;;;;;;13.80;8.38;;;;;;;7.97;100.00;102261.91;5013936;28;20029;-65
2023/10/16 08:45:32;;;;;;;13.32;8.75;;;;;;;8.08;100.00;102268.97;5030511;28;20064;-66
2023/10/16 08:47:58;;;;;;;11.75;8.50;;;;;;;8.13;100.00;102264.19;5010543;28;20104;-65
2023/10/16 08:50:40;;;;;;;13.40;8.57;;;;;;;8.25;100.00;102259.75;5025574;28;20096;-65
2023/10/16 08:53:05;;;;;;;13.90;8.38;;;;;;;8.36;100.00;102262.41;5015699;28;20410;-65
2023/10/16 08:55:32;;;;;;;14.43;8.50;;;;;;;8.44;100.00;102261.81;5013428;28;20025;-66
2023/10/16 08:57:57;;;;;;;12.43;7.38;;;;;;;8.54;100.00;102268.91;5010327;28;20025;-66
2023/10/16 09:00:23;;;;;;;11.13;7.75;;;;;;;8.65;100.00;102271.53;5015901;28;20044;-65
2023/10/16 09:02:51;;;;;;;11.45;6.93;;;;;;;8.73;100.00;102268.28;5010447;28;20034;-65
2023/10/16 09:05:16;;;;;;;11.25;6.13;;;;;;;8.82;100.00;102270.19;5015041;28;20399;-65
2023/10/16 09:07:42;;;;;;;9.52;5.72;;;;;;;8.94;100.00;102265.69;5018461;28;20042;-66
2023/10/16 09:10:09;;;;;;;8.75;5.60;;;;;;;9.10;100.00;102275.88;5024750;28;20112;-65
2023/10/16 09:12:44;;;;;;;9.70;5.20;;;;;;;9.19;100.00;102267.16;5011328;28;20038;-65
2023/10/16 09:15:12;;;;;;;9.65;5.55;;;;;;;9.30;100.00;102264.50;5009968;28;20117;-66
2023/10/16 09:17:38;;;;;;;9.60;5.50;;;;;;;9.45;100.00;102271.16;5013161;28;20029;-65
2023/10/16 09:20:14;;;;;;;11.32;5.35;;;;;;;9.53;100.00;102266.03;5020501;28;20510;-66
2023/10/16 09:22:45;;;;;;;12.30;5.50;;;;;;;9.67;100.00;102270.19;5016532;28;20061;-65
2023/10/16 09:25:15;;;;;;;11.13;4.75;;;;;;;9.72;100.00;102268.00;5010476;28;20057;-66
2023/10/16 09:27:42;;;;;;;7.82;4.38;;;;;;;9.79;100.00;102271.78;5009323;28;20026;-66
2023/10/16 09:30:14;;;;;;;7.35;3.63;;;;;;;9.82;100.00;102254.78;5010072;28;20092;-66
2023/10/16 09:32:40;;;;;;;8.60;3.60;;;;;;;9.97;100.00;102269.41;5010050;28;20033;-66
2023/10/16 09:35:11;;;;;;;9.40;3.13;;;;;;;10.02;99.64;102261.88;5016327;28;20037;-66
2023/10/16 09:37:37;;;;;;;5.50;3.15;;;;;;;10.10;98.67;102266.50;5022872;28;20177;-66
2023/10/16 09:42:56;;;;;;;6.10;3.50;;;;;;;10.27;97.39;102262.44;5022260;28;20117;-66
2023/10/16 09:45:23;;;;;;;8.48;3.22;;;;;;;10.32;96.67;102268.19;5014300;28;20116;-65
2023/10/16 09:47:51;;;;;;;8.45;2.70;;;;;;;10.42;95.89;102261.13;5027028;28;20479;-65
2023/10/16 09:50:18;;;;;;;6.65;2.97;;;;;;;10.48;95.64;102276.50;5035846;28;20036;-66
2023/10/16 09:52:48;;;;;;;7.13;3.17;;;;;;;10.55;94.82;102277.66;5011654;28;20491;-66
2023/10/16 09:55:14;;;;;;;7.25;2.80;;;;;;;10.61;94.18;102266.47;5009735;28;20021;-66
2023/10/16 09:57:49;;;;;;;8.75;3.08;;;;;;;10.67;93.49;102260.59;5015534;28;20045;-65
2023/10/16 10:03:05;;;;;;;6.85;3.05;;;;;;;10.83;93.20;102268.06;5017891;28;20065;-65
2023/10/16 10:05:39;;;;;;;5.03;2.70;;;;;;;10.93;92.95;102270.72;5022695;28;20039;-65
2023/10/16 10:08:23;;;;;;;4.75;2.60;;;;;;;11.02;92.41;102278.75;5014613;28;20060;-66
2023/10/16 10:13:43;;;;;;;9.02;3.00;;;;;;;11.17;91.86;102273.84;5018567;28;20052;-66
2023/10/16 10:16:13;;;;;;;5.60;2.80;;;;;;;11.24;91.66;102274.09;5017711;28;20029;-66
2023/10/16 10:18:45;;;;;;;7.32;2.50;;;;;;;11.28;91.02;102260.41;5023416;28;20029;-65
2023/10/16 10:21:18;;;;;;;6.30;3.30;;;;;;;11.33;90.53;102265.31;5016896;28;20017;-66
2023/10/16 10:23:47;;;;;;;5.68;2.60;;;;;;;11.37;90.10;102256.91;5018356;28;20030;-66
2023/10/16 10:26:18;;;;;;;6.00;2.42;;;;;;;11.42;89.85;102259.97;5019489;28;20064;-66
2023/10/16 10:28:45;;;;;;;6.68;2.72;;;;;;;11.47;89.06;102260.38;5010643;28;20451;-66
2023/10/16 10:31:12;;;;;;;6.88;2.65;;;;;;;11.55;88.69;102261.50;5014980;28;20022;-66
2023/10/16 10:33:51;;;;;;;6.43;2.88;;;;;;;11.54;88.25;102265.13;5013635;28;20020;-66
2023/10/16 10:36:33;;;;;;;8.98;2.85;;;;;;;11.58;87.11;102256.75;5015750;28;20034;-66
2023/10/16 10:39:21;;;;;;;4.03;2.33;;;;;;;11.64;86.09;102260.66;5017318;28;20037;-66
2023/10/16 10:41:53;;;;;;;7.47;2.43;;;;;;;11.63;86.51;102257.16;5018249;28;20041;-66
2023/10/16 10:44:28;;;;;;;8.00;2.10;;;;;;;11.74;85.48;102261.47;5018932;28;20399;-65
2023/10/16 10:46:54;;;;;;;3.72;2.05;;;;;;;11.78;85.67;102261.06;5012390;28;20422;-66
2023/10/16 10:49:33;;;;;;;4.97;2.08;;;;;;;11.84;85.15;102256.16;5012965;28;20026;-65
2023/10/16 10:52:00;;;;;;;6.82;2.15;;;;;;;11.89;84.99;102254.75;5008501;28;20022;-65
2023/10/16 10:54:26;;;;;;;4.60;1.92;;;;;;;11.87;83.76;102255.88;5009108;28;20025;-66
2023/10/16 10:56:53;;;;;;;5.70;2.03;;;;;;;11.87;83.27;102253.22;5012364;28;20018;-66
2023/10/16 10:59:39;;;;;;;6.38;1.95;;;;;;;11.96;83.08;102247.88;5021781;28;20057;-66
2023/10/16 11:04:44;;;;;;;4.38;1.30;;;;;;;11.97;81.42;102249.53;5015846;28;20504;-66
2023/10/16 11:07:25;;;;;;;4.10;1.50;;;;;;;12.04;80.69;102247.97;5027982;28;20028;-65
2023/10/16 11:09:52;;;;;;;6.25;1.60;;;;;;;12.01;79.61;102242.09;5024534;28;20102;-66
2023/10/16 11:12:24;;;;;;;4.25;1.50;;;;;;;12.12;79.59;102241.91;5018920;28;20537;-65
2023/10/16 11:14:50;;;;;;;4.18;1.58;;;;;;;12.23;80.44;102239.06;5014602;28;20045;-66
2023/10/16 11:17:35;;;;;;;3.90;1.63;;;;;;;12.39;79.65;102244.59;5027381;28;20521;-66
2023/10/16 11:22:43;;;;;;;8.68;1.85;;;;;;;12.56;79.25;102240.31;5024715;28;20147;-66
2023/10/16 11:25:13;;;;;;;;;;;;;;;12.71;79.35;102235.28;5013927;28;20036;-66
2023/10/16 11:27:42;;;;;;;7.18;1.25;;;;;;;12.66;78.89;102232.25;5022119;28;19913;-65
2023/10/16 11:30:11;;;;;;;3.55;1.00;;;;;;;12.59;77.77;102231.16;5017660;28;20010;-66
2023/10/16 11:32:47;;;;;;;5.03;1.40;;;;;;;12.56;77.20;102228.81;5011328;28;20038;-66
2023/10/16 11:35:14;;;;;;;3.00;1.20;;;;;;;12.50;77.08;102224.06;5020434;28;20686;-66
2023/10/16 11:37:42;;;;;;;3.05;1.20;;;;;;;12.52;77.27;102220.28;5016512;28;20025;-66
2023/10/16 11:40:18;;;;;;;7.25;1.83;;;;;;;12.51;76.84;102223.94;5022656;28;20025;-66
2023/10/16 11:42:46;;;;;;;2.60;1.33;;;;;;;12.58;77.04;102217.00;5021288;28;20069;-66
2023/10/16 11:45:18;;;;;;;4.40;1.27;;;;;;;12.64;77.23;102218.22;5020768;28;20041;-66
2023/10/16 11:47:44;;;;;;;6.65;1.60;;;;;;;12.67;76.58;102200.09;5023801;28;20503;-66
2023/10/16 11:50:17;;;;;;;4.90;1.63;;;;;;;12.73;76.38;102200.50;5020665;28;20033;-66
2023/10/16 11:52:43;;;;;;;5.68;1.30;;;;;;;12.76;76.50;102202.88;5023992;28;20414;-66
2023/10/16 11:55:08;;;;;;;7.72;1.60;;;;;;;12.83;76.16;102199.44;5024348;28;20021;-66
2023/10/16 11:57:34;;;;;;;5.55;1.50;;;;;;;12.89;76.08;102198.81;5017700;28;20143;-66
2023/10/16 12:00:15;;;;;;;2.90;1.30;;;;;;;12.89;75.32;102192.66;5017855;28;20439;-66
2023/10/16 12:02:41;;;;;;;4.78;2.03;;;;;;;12.89;75.34;102185.50;5019120;28;20112;-66
2023/10/16 12:05:06;;;;;;;6.50;3.75;;;;;;;12.93;75.07;102188.69;5020998;28;20112;-65
2023/10/16 12:07:33;;;;;;;4.53;1.75;;;;;;;12.93;74.03;102188.69;5027636;28;20033;-66
2023/10/16 12:10:04;;;;;;;4.65;2.30;;;;;;;12.96;74.12;102197.22;5019699;28;20033;-66
2023/10/16 12:12:30;;;;;;;3.03;1.58;;;;;;;13.00;73.84;102182.59;5017008;28;20025;-66
2023/10/16 12:14:56;;;;;;;4.47;1.40;;;;;;;13.10;73.98;102174.50;5015369;28;20403;-66
2023/10/16 12:17:24;;;;;;;3.38;1.30;;;;;;;13.21;74.15;102171.63;5021305;28;20025;-66
2023/10/16 12:19:52;;;;;;;3.38;1.25;;;;;;;13.24;72.88;102170.47;5023229;28;20029;-66
2023/10/16 12:22:20;;;;;;;4.45;1.30;;;;;;;13.33;72.56;102181.06;5016934;28;20041;-66
2023/10/16 12:24:46;;;;;;;3.00;1.42;;;;;;;13.32;71.98;102167.88;5013022;28;20061;-65
2023/10/16 12:27:15;;;;;;;4.20;2.33;;;;;;;13.49;71.91;102168.81;5018977;28;20056;-66
2023/10/16 12:29:41;;;;;;;4.53;1.70;;;;;;;13.54;71.57;102170.00;5019857;28;20014;-65
2023/10/16 12:32:07;;;;;;;5.18;1.55;;;;;;;13.60;71.33;102161.41;5027349;28;20029;-66
2023/10/16 12:34:32;;;;;;;6.65;1.90;;;;;;;13.69;71.78;102169.44;5027782;28;20022;-66
2023/10/16 12:37:00;;;;;;;3.22;1.30;;;;;;;13.66;70.98;102159.94;5015054;28;20101;-66
2023/10/16 12:39:26;;;;;;;3.83;1.73;;;;;;;13.73;70.90;102163.63;5021244;28;20129;-66
2023/10/16 12:41:55;;;;;;;7.13;1.50;;;;;;;13.74;70.27;102167.97;5029708;28;20439;-65
2023/10/16 12:44:23;;;;;;;;;;;;;;;13.91;70.46;102159.06;5028266;28;20111;-66
2023/10/16 12:46:49;;;;;;;4.70;1.40;;;;;;;13.70;70.10;102147.94;5020469;28;19956;-66
2023/10/16 12:49:14;;;;;;;7.38;3.78;;;;;;;13.71;70.04;102154.94;5015844;28;20042;-66
2023/10/16 12:51:42;;;;;;;2.95;1.33;;;;;;;13.71;70.02;102152.28;5017099;28;20048;-66
2023/10/16 12:54:09;;;;;;;5.78;1.40;;;;;;;13.73;70.51;102150.28;5017760;28;20045;-66
2023/10/16 12:56:38;;;;;;;2.47;1.40;;;;;;;13.70;70.32;102147.09;5022508;28;20071;-66